sensor_id;sensor_type;location;lat;lon;timestamp;P1;durP1;ratioP1;P2;durP2;ratioP2
5277;SDS011;2662;51.194;6.614;2023-04-06T00:01:11;11.37;;;6.30;;
5277;SDS011;2662;51.194;6.614;2023-04-06T00:03:38;11.00;;;6.37;;
5277;SDS011;2662;51.194;6.614;2023-04-06T00:06:05;10.60;;;6.30;;
5277;SDS011;2662;51.194;6.614;2023-04-06T00:08:32;10.20;;;6.30;;
5277;SDS011;2662;51.194;6.614;2023-04-06T00:11:00;10.20;;;6.20;;
5277;SDS011;2662;51.194;6.614;2023-04-06T00:13:27;15.10;;;6.20;;
5277;SDS011;2662;51.194;6.614;2023-04-06T00:15:54;13.07;;;7.07;;
5277;SDS011;2662;51.194;6.614;2023-04-06T00:18:22;9.43;;;6.20;;
5277;SDS011;2662;51.194;6.614;2023-04-06T00:20:49;10.67;;;6.23;;
5277;SDS011;2662;51.194;6.614;2023-04-06T00:23:16;11.80;;;6.30;;
5277;SDS011;2662;51.194;6.614;2023-04-06T00:25:43;13.20;;;7.20;;
5277;SDS011;2662;51.194;6.614;2023-04-06T00:28:11;11.23;;;6.20;;
5277;SDS011;2662;51.194;6.614;2023-04-06T00:30:38;13.10;;;6.70;;
5277;SDS011;2662;51.194;6.614;2023-04-06T00:33:04;17.47;;;7.77;;
5277;SDS011;2662;51.194;6.614;2023-04-06T00:35:31;12.40;;;7.20;;
5277;SDS011;2662;51.194;6.614;2023-04-06T00:37:58;10.90;;;6.63;;
5277;SDS011;2662;51.194;6.614;2023-04-06T00:40:25;20.97;;;7.80;;
5277;SDS011;2662;51.194;6.614;2023-04-06T00:42:53;14.80;;;7.07;;
5277;SDS011;2662;51.194;6.614;2023-04-06T00:45:21;11.90;;;6.83;;
5277;SDS011;2662;51.194;6.614;2023-04-06T00:47:48;8.93;;;5.80;;
5277;SDS011;2662;51.194;6.614;2023-04-06T00:50:15;7.53;;;5.20;;
5277;SDS011;2662;51.194;6.614;2023-04-06T00:52:42;11.37;;;5.70;;
5277;SDS011;2662;51.194;6.614;2023-04-06T00:55:09;11.83;;;6.07;;
5277;SDS011;2662;51.194;6.614;2023-04-06T00:57:36;8.73;;;6.00;;
5277;SDS011;2662;51.194;6.614;2023-04-06T01:00:03;11.73;;;6.27;;
5277;SDS011;2662;51.194;6.614;2023-04-06T01:02:33;10.50;;;5.77;;
5277;SDS011;2662;51.194;6.614;2023-04-06T01:04:59;12.70;;;5.77;;
5277;SDS011;2662;51.194;6.614;2023-04-06T01:07:26;12.20;;;6.00;;
5277;SDS011;2662;51.194;6.614;2023-04-06T01:09:53;14.43;;;7.00;;
5277;SDS011;2662;51.194;6.614;2023-04-06T01:12:20;13.50;;;6.30;;
5277;SDS011;2662;51.194;6.614;2023-04-06T01:14:47;12.93;;;6.10;;
5277;SDS011;2662;51.194;6.614;2023-04-06T01:17:14;13.00;;;8.03;;
5277;SDS011;2662;51.194;6.614;2023-04-06T01:19:42;19.23;;;6.20;;
5277;SDS011;2662;51.194;6.614;2023-04-06T01:22:14;12.10;;;6.50;;
5277;SDS011;2662;51.194;6.614;2023-04-06T01:24:42;12.73;;;6.33;;
5277;SDS011;2662;51.194;6.614;2023-04-06T01:27:08;11.10;;;6.90;;
5277;SDS011;2662;51.194;6.614;2023-04-06T01:29:35;10.97;;;6.70;;
5277;SDS011;2662;51.194;6.614;2023-04-06T01:32:02;13.67;;;7.50;;
5277;SDS011;2662;51.194;6.614;2023-04-06T01:34:30;15.80;;;7.30;;
5277;SDS011;2662;51.194;6.614;2023-04-06T01:36:57;12.70;;;6.70;;
5277;SDS011;2662;51.194;6.614;2023-04-06T01:39:25;11.60;;;5.87;;
5277;SDS011;2662;51.194;6.614;2023-04-06T01:41:52;10.43;;;6.13;;
5277;SDS011;2662;51.194;6.614;2023-04-06T01:44:19;9.70;;;6.60;;
5277;SDS011;2662;51.194;6.614;2023-04-06T01:46:45;12.60;;;6.90;;
5277;SDS011;2662;51.194;6.614;2023-04-06T01:49:12;10.07;;;6.30;;
5277;SDS011;2662;51.194;6.614;2023-04-06T01:51:39;11.10;;;6.30;;
5277;SDS011;2662;51.194;6.614;2023-04-06T01:54:06;13.50;;;7.20;;
5277;SDS011;2662;51.194;6.614;2023-04-06T01:56:34;14.10;;;7.63;;
5277;SDS011;2662;51.194;6.614;2023-04-06T01:59:01;14.30;;;7.60;;
5277;SDS011;2662;51.194;6.614;2023-04-06T02:01:28;15.10;;;7.83;;
5277;SDS011;2662;51.194;6.614;2023-04-06T02:03:54;13.93;;;7.20;;
5277;SDS011;2662;51.194;6.614;2023-04-06T02:06:21;13.90;;;7.70;;
5277;SDS011;2662;51.194;6.614;2023-04-06T02:08:48;11.60;;;6.77;;
5277;SDS011;2662;51.194;6.614;2023-04-06T02:11:15;15.27;;;7.53;;
5277;SDS011;2662;51.194;6.614;2023-04-06T02:13:43;12.73;;;7.03;;
5277;SDS011;2662;51.194;6.614;2023-04-06T02:16:10;20.60;;;7.20;;
5277;SDS011;2662;51.194;6.614;2023-04-06T02:18:37;13.73;;;7.33;;
5277;SDS011;2662;51.194;6.614;2023-04-06T02:21:04;11.70;;;6.30;;
5277;SDS011;2662;51.194;6.614;2023-04-06T02:23:31;11.73;;;7.23;;
5277;SDS011;2662;51.194;6.614;2023-04-06T02:25:58;14.27;;;8.27;;
5277;SDS011;2662;51.194;6.614;2023-04-06T02:28:25;11.57;;;7.43;;
5277;SDS011;2662;51.194;6.614;2023-04-06T02:30:53;12.57;;;8.20;;
5277;SDS011;2662;51.194;6.614;2023-04-06T02:33:20;17.57;;;8.87;;
5277;SDS011;2662;51.194;6.614;2023-04-06T02:35:47;15.77;;;8.10;;
5277;SDS011;2662;51.194;6.614;2023-04-06T02:38:13;12.10;;;8.30;;
5277;SDS011;2662;51.194;6.614;2023-04-06T02:40:40;17.20;;;8.57;;
5277;SDS011;2662;51.194;6.614;2023-04-06T02:43:07;19.00;;;7.83;;
5277;SDS011;2662;51.194;6.614;2023-04-06T02:45:34;14.00;;;7.50;;
5277;SDS011;2662;51.194;6.614;2023-04-06T02:48:02;30.20;;;8.47;;
5277;SDS011;2662;51.194;6.614;2023-04-06T02:50:30;17.87;;;8.60;;
5277;SDS011;2662;51.194;6.614;2023-04-06T02:52:56;13.47;;;7.67;;
5277;SDS011;2662;51.194;6.614;2023-04-06T02:55:23;17.30;;;8.57;;
5277;SDS011;2662;51.194;6.614;2023-04-06T02:57:50;17.17;;;8.00;;
5277;SDS011;2662;51.194;6.614;2023-04-06T03:00:17;18.60;;;7.40;;
5277;SDS011;2662;51.194;6.614;2023-04-06T03:02:44;22.50;;;8.77;;
5277;SDS011;2662;51.194;6.614;2023-04-06T03:05:12;15.70;;;8.70;;
5277;SDS011;2662;51.194;6.614;2023-04-06T03:07:40;14.67;;;8.47;;
5277;SDS011;2662;51.194;6.614;2023-04-06T03:10:07;17.23;;;9.37;;
5277;SDS011;2662;51.194;6.614;2023-04-06T03:12:34;18.50;;;8.60;;
5277;SDS011;2662;51.194;6.614;2023-04-06T03:15:01;18.13;;;9.60;;
5277;SDS011;2662;51.194;6.614;2023-04-06T03:17:28;22.33;;;9.60;;
5277;SDS011;2662;51.194;6.614;2023-04-06T03:19:55;20.57;;;9.00;;
5277;SDS011;2662;51.194;6.614;2023-04-06T03:22:23;17.17;;;8.77;;
5277;SDS011;2662;51.194;6.614;2023-04-06T03:24:50;16.43;;;8.93;;
5277;SDS011;2662;51.194;6.614;2023-04-06T03:27:17;17.87;;;9.20;;
5277;SDS011;2662;51.194;6.614;2023-04-06T03:29:43;19.90;;;9.57;;
5277;SDS011;2662;51.194;6.614;2023-04-06T03:32:10;27.83;;;9.60;;
5277;SDS011;2662;51.194;6.614;2023-04-06T03:34:37;18.90;;;9.23;;
5277;SDS011;2662;51.194;6.614;2023-04-06T03:37:05;20.63;;;9.70;;
5277;SDS011;2662;51.194;6.614;2023-04-06T03:39:33;14.40;;;8.17;;
5277;SDS011;2662;51.194;6.614;2023-04-06T03:42:00;17.03;;;9.17;;
5277;SDS011;2662;51.194;6.614;2023-04-06T03:44:27;15.47;;;8.60;;
5277;SDS011;2662;51.194;6.614;2023-04-06T03:46:53;15.33;;;8.47;;
5277;SDS011;2662;51.194;6.614;2023-04-06T03:49:20;20.00;;;9.80;;
5277;SDS011;2662;51.194;6.614;2023-04-06T03:51:47;20.00;;;9.00;;
5277;SDS011;2662;51.194;6.614;2023-04-06T03:54:14;23.00;;;9.73;;
5277;SDS011;2662;51.194;6.614;2023-04-06T03:56:42;17.33;;;8.60;;
5277;SDS011;2662;51.194;6.614;2023-04-06T03:59:09;21.57;;;9.40;;
5277;SDS011;2662;51.194;6.614;2023-04-06T04:01:36;14.67;;;8.13;;
5277;SDS011;2662;51.194;6.614;2023-04-06T04:04:04;24.73;;;9.27;;
5277;SDS011;2662;51.194;6.614;2023-04-06T04:06:31;16.10;;;9.10;;
5277;SDS011;2662;51.194;6.614;2023-04-06T04:08:58;17.50;;;8.43;;
5277;SDS011;2662;51.194;6.614;2023-04-06T04:11:25;23.53;;;9.10;;
5277;SDS011;2662;51.194;6.614;2023-04-06T04:13:53;16.77;;;9.30;;
5277;SDS011;2662;51.194;6.614;2023-04-06T04:16:20;15.47;;;8.83;;
5277;SDS011;2662;51.194;6.614;2023-04-06T04:18:46;23.30;;;9.00;;
5277;SDS011;2662;51.194;6.614;2023-04-06T04:21:13;20.10;;;8.73;;
5277;SDS011;2662;51.194;6.614;2023-04-06T04:23:40;16.50;;;9.03;;
5277;SDS011;2662;51.194;6.614;2023-04-06T04:26:07;18.57;;;8.73;;
5277;SDS011;2662;51.194;6.614;2023-04-06T04:28:34;16.10;;;7.83;;
5277;SDS011;2662;51.194;6.614;2023-04-06T04:31:02;17.37;;;8.90;;
5277;SDS011;2662;51.194;6.614;2023-04-06T04:33:29;20.73;;;8.83;;
5277;SDS011;2662;51.194;6.614;2023-04-06T04:35:56;21.27;;;10.30;;
5277;SDS011;2662;51.194;6.614;2023-04-06T04:38:23;20.87;;;9.70;;
5277;SDS011;2662;51.194;6.614;2023-04-06T04:40:49;14.00;;;8.37;;
5277;SDS011;2662;51.194;6.614;2023-04-06T04:43:16;29.50;;;9.03;;
5277;SDS011;2662;51.194;6.614;2023-04-06T04:45:43;20.57;;;8.87;;
5277;SDS011;2662;51.194;6.614;2023-04-06T04:48:11;17.70;;;8.60;;
5277;SDS011;2662;51.194;6.614;2023-04-06T04:50:38;16.70;;;8.33;;
5277;SDS011;2662;51.194;6.614;2023-04-06T04:53:05;14.13;;;7.80;;
5277;SDS011;2662;51.194;6.614;2023-04-06T04:55:31;12.60;;;7.90;;
5277;SDS011;2662;51.194;6.614;2023-04-06T04:57:58;14.60;;;7.60;;
5277;SDS011;2662;51.194;6.614;2023-04-06T05:00:25;12.90;;;7.50;;
5277;SDS011;2662;51.194;6.614;2023-04-06T05:02:52;11.83;;;7.30;;
5277;SDS011;2662;51.194;6.614;2023-04-06T05:05:20;15.70;;;7.60;;
5277;SDS011;2662;51.194;6.614;2023-04-06T05:07:47;14.60;;;7.90;;
5277;SDS011;2662;51.194;6.614;2023-04-06T05:10:13;16.47;;;8.50;;
5277;SDS011;2662;51.194;6.614;2023-04-06T05:12:40;15.43;;;8.20;;
5277;SDS011;2662;51.194;6.614;2023-04-06T05:15:07;20.23;;;8.10;;
5277;SDS011;2662;51.194;6.614;2023-04-06T05:17:35;13.70;;;8.47;;
5277;SDS011;2662;51.194;6.614;2023-04-06T05:20:02;15.40;;;8.50;;
5277;SDS011;2662;51.194;6.614;2023-04-06T05:22:31;13.87;;;7.90;;
5277;SDS011;2662;51.194;6.614;2023-04-06T05:24:58;19.90;;;8.30;;
5277;SDS011;2662;51.194;6.614;2023-04-06T05:27:25;19.83;;;8.70;;
5277;SDS011;2662;51.194;6.614;2023-04-06T05:29:52;15.87;;;8.67;;
5277;SDS011;2662;51.194;6.614;2023-04-06T05:32:19;19.03;;;8.37;;
5277;SDS011;2662;51.194;6.614;2023-04-06T05:34:47;13.00;;;7.83;;
5277;SDS011;2662;51.194;6.614;2023-04-06T05:37:14;28.87;;;8.17;;
5277;SDS011;2662;51.194;6.614;2023-04-06T05:39:42;11.53;;;7.73;;
5277;SDS011;2662;51.194;6.614;2023-04-06T05:42:09;14.47;;;7.80;;
5277;SDS011;2662;51.194;6.614;2023-04-06T05:44:36;15.47;;;8.60;;
5277;SDS011;2662;51.194;6.614;2023-04-06T05:47:03;12.00;;;7.80;;
5277;SDS011;2662;51.194;6.614;2023-04-06T05:49:30;15.37;;;7.90;;
5277;SDS011;2662;51.194;6.614;2023-04-06T05:51:57;12.83;;;7.97;;
5277;SDS011;2662;51.194;6.614;2023-04-06T05:54:24;14.27;;;8.33;;
5277;SDS011;2662;51.194;6.614;2023-04-06T05:56:52;12.63;;;7.67;;
5277;SDS011;2662;51.194;6.614;2023-04-06T05:59:19;16.00;;;7.80;;
5277;SDS011;2662;51.194;6.614;2023-04-06T06:01:46;14.67;;;8.00;;
5277;SDS011;2662;51.194;6.614;2023-04-06T06:04:13;14.87;;;7.00;;
5277;SDS011;2662;51.194;6.614;2023-04-06T06:06:39;11.13;;;6.70;;
5277;SDS011;2662;51.194;6.614;2023-04-06T06:09:06;16.07;;;7.70;;
5277;SDS011;2662;51.194;6.614;2023-04-06T06:11:33;15.03;;;7.63;;
5277;SDS011;2662;51.194;6.614;2023-04-06T06:14:01;16.53;;;7.20;;
5277;SDS011;2662;51.194;6.614;2023-04-06T06:16:28;12.73;;;7.80;;
5277;SDS011;2662;51.194;6.614;2023-04-06T06:18:55;13.90;;;6.90;;
5277;SDS011;2662;51.194;6.614;2023-04-06T06:21:22;9.80;;;6.73;;
5277;SDS011;2662;51.194;6.614;2023-04-06T06:23:49;12.90;;;7.30;;
5277;SDS011;2662;51.194;6.614;2023-04-06T06:26:16;12.27;;;7.73;;
5277;SDS011;2662;51.194;6.614;2023-04-06T06:28:43;10.73;;;7.00;;
5277;SDS011;2662;51.194;6.614;2023-04-06T06:31:11;16.37;;;7.27;;
5277;SDS011;2662;51.194;6.614;2023-04-06T06:33:38;16.47;;;7.50;;
5277;SDS011;2662;51.194;6.614;2023-04-06T06:36:05;16.50;;;7.33;;
5277;SDS011;2662;51.194;6.614;2023-04-06T06:38:32;15.67;;;7.93;;
5277;SDS011;2662;51.194;6.614;2023-04-06T06:40:59;14.43;;;7.63;;
5277;SDS011;2662;51.194;6.614;2023-04-06T06:43:26;11.93;;;7.47;;
5277;SDS011;2662;51.194;6.614;2023-04-06T06:45:53;10.07;;;7.47;;
5277;SDS011;2662;51.194;6.614;2023-04-06T06:48:21;13.70;;;7.80;;
5277;SDS011;2662;51.194;6.614;2023-04-06T06:50:48;12.53;;;7.63;;
5277;SDS011;2662;51.194;6.614;2023-04-06T06:53:14;14.73;;;7.73;;
5277;SDS011;2662;51.194;6.614;2023-04-06T06:55:41;14.20;;;7.27;;
5277;SDS011;2662;51.194;6.614;2023-04-06T06:58:09;13.30;;;8.20;;
5277;SDS011;2662;51.194;6.614;2023-04-06T07:00:36;13.37;;;7.10;;
5277;SDS011;2662;51.194;6.614;2023-04-06T07:03:03;14.67;;;7.40;;
5277;SDS011;2662;51.194;6.614;2023-04-06T07:05:31;11.77;;;7.20;;
5277;SDS011;2662;51.194;6.614;2023-04-06T07:07:58;13.63;;;7.50;;
5277;SDS011;2662;51.194;6.614;2023-04-06T07:10:25;11.50;;;6.97;;
5277;SDS011;2662;51.194;6.614;2023-04-06T07:12:52;16.60;;;8.33;;
5277;SDS011;2662;51.194;6.614;2023-04-06T07:15:19;13.83;;;8.07;;
5277;SDS011;2662;51.194;6.614;2023-04-06T07:17:45;13.50;;;7.33;;
5277;SDS011;2662;51.194;6.614;2023-04-06T07:20:12;15.40;;;8.10;;
5277;SDS011;2662;51.194;6.614;2023-04-06T07:22:41;13.60;;;7.40;;
5277;SDS011;2662;51.194;6.614;2023-04-06T07:25:09;16.03;;;7.20;;
5277;SDS011;2662;51.194;6.614;2023-04-06T07:27:36;9.97;;;7.10;;
5277;SDS011;2662;51.194;6.614;2023-04-06T07:30:03;10.63;;;6.70;;
5277;SDS011;2662;51.194;6.614;2023-04-06T07:32:30;14.10;;;7.90;;
5277;SDS011;2662;51.194;6.614;2023-04-06T07:34:59;12.63;;;7.23;;
5277;SDS011;2662;51.194;6.614;2023-04-06T07:37:26;12.07;;;7.10;;
5277;SDS011;2662;51.194;6.614;2023-04-06T07:39:54;11.83;;;7.60;;
5277;SDS011;2662;51.194;6.614;2023-04-06T07:42:21;12.03;;;7.47;;
5277;SDS011;2662;51.194;6.614;2023-04-06T07:44:48;12.67;;;7.83;;
5277;SDS011;2662;51.194;6.614;2023-04-06T07:47:15;12.07;;;7.50;;
5277;SDS011;2662;51.194;6.614;2023-04-06T07:49:41;12.33;;;8.07;;
5277;SDS011;2662;51.194;6.614;2023-04-06T07:52:08;18.10;;;7.63;;
5277;SDS011;2662;51.194;6.614;2023-04-06T07:54:35;11.97;;;7.40;;
5277;SDS011;2662;51.194;6.614;2023-04-06T07:57:03;14.60;;;8.10;;
5277;SDS011;2662;51.194;6.614;2023-04-06T07:59:30;15.53;;;8.67;;
5277;SDS011;2662;51.194;6.614;2023-04-06T08:01:57;14.50;;;8.07;;
5277;SDS011;2662;51.194;6.614;2023-04-06T08:04:23;14.13;;;8.27;;
5277;SDS011;2662;51.194;6.614;2023-04-06T08:06:50;11.30;;;7.67;;
5277;SDS011;2662;51.194;6.614;2023-04-06T08:09:17;17.93;;;8.23;;
5277;SDS011;2662;51.194;6.614;2023-04-06T08:11:44;13.80;;;8.60;;
5277;SDS011;2662;51.194;6.614;2023-04-06T08:14:12;13.90;;;8.07;;
5277;SDS011;2662;51.194;6.614;2023-04-06T08:16:40;14.20;;;8.10;;
5277;SDS011;2662;51.194;6.614;2023-04-06T08:19:07;13.60;;;8.40;;
5277;SDS011;2662;51.194;6.614;2023-04-06T08:21:34;11.80;;;7.80;;
5277;SDS011;2662;51.194;6.614;2023-04-06T08:24:01;15.90;;;8.80;;
5277;SDS011;2662;51.194;6.614;2023-04-06T08:26:28;13.23;;;7.97;;
5277;SDS011;2662;51.194;6.614;2023-04-06T08:28:55;13.83;;;8.50;;
5277;SDS011;2662;51.194;6.614;2023-04-06T08:31:23;14.50;;;8.13;;
5277;SDS011;2662;51.194;6.614;2023-04-06T08:33:51;17.77;;;8.27;;
5277;SDS011;2662;51.194;6.614;2023-04-06T08:36:18;12.60;;;7.97;;
5277;SDS011;2662;51.194;6.614;2023-04-06T08:38:47;14.00;;;7.90;;
5277;SDS011;2662;51.194;6.614;2023-04-06T08:41:15;14.10;;;8.30;;
5277;SDS011;2662;51.194;6.614;2023-04-06T08:43:43;13.80;;;9.10;;
5277;SDS011;2662;51.194;6.614;2023-04-06T08:46:13;20.03;;;9.27;;
5277;SDS011;2662;51.194;6.614;2023-04-06T08:48:42;16.60;;;9.20;;
5277;SDS011;2662;51.194;6.614;2023-04-06T08:51:09;14.70;;;9.00;;
5277;SDS011;2662;51.194;6.614;2023-04-06T08:53:36;16.50;;;8.63;;
5277;SDS011;2662;51.194;6.614;2023-04-06T08:56:04;14.27;;;8.87;;
5277;SDS011;2662;51.194;6.614;2023-04-06T08:58:32;15.23;;;9.33;;
5277;SDS011;2662;51.194;6.614;2023-04-06T09:01:01;14.90;;;8.77;;
5277;SDS011;2662;51.194;6.614;2023-04-06T09:03:31;22.03;;;10.00;;
5277;SDS011;2662;51.194;6.614;2023-04-06T09:06:02;15.80;;;8.63;;
5277;SDS011;2662;51.194;6.614;2023-04-06T09:08:29;12.30;;;8.80;;
5277;SDS011;2662;51.194;6.614;2023-04-06T09:10:56;16.23;;;9.00;;
5277;SDS011;2662;51.194;6.614;2023-04-06T09:13:23;16.83;;;8.90;;
5277;SDS011;2662;51.194;6.614;2023-04-06T09:15:58;14.80;;;9.07;;
5277;SDS011;2662;51.194;6.614;2023-04-06T09:18:28;16.43;;;9.60;;
5277;SDS011;2662;51.194;6.614;2023-04-06T09:20:56;16.93;;;9.30;;
5277;SDS011;2662;51.194;6.614;2023-04-06T09:23:26;16.10;;;9.00;;
5277;SDS011;2662;51.194;6.614;2023-04-06T09:26:02;16.67;;;9.90;;
5277;SDS011;2662;51.194;6.614;2023-04-06T09:28:43;16.53;;;9.23;;
5277;SDS011;2662;51.194;6.614;2023-04-06T09:31:11;22.43;;;9.73;;
5277;SDS011;2662;51.194;6.614;2023-04-06T09:33:39;19.53;;;9.90;;
5277;SDS011;2662;51.194;6.614;2023-04-06T09:36:07;18.97;;;10.03;;
5277;SDS011;2662;51.194;6.614;2023-04-06T09:38:37;19.70;;;10.67;;
5277;SDS011;2662;51.194;6.614;2023-04-06T09:41:04;16.17;;;10.00;;
5277;SDS011;2662;51.194;6.614;2023-04-06T09:43:31;15.47;;;9.80;;
5277;SDS011;2662;51.194;6.614;2023-04-06T09:45:58;22.50;;;9.90;;
5277;SDS011;2662;51.194;6.614;2023-04-06T09:48:28;18.73;;;10.00;;
5277;SDS011;2662;51.194;6.614;2023-04-06T09:50:59;16.67;;;9.97;;
5277;SDS011;2662;51.194;6.614;2023-04-06T09:53:28;17.43;;;9.77;;
5277;SDS011;2662;51.194;6.614;2023-04-06T09:55:59;22.23;;;10.47;;
5277;SDS011;2662;51.194;6.614;2023-04-06T09:58:29;19.60;;;10.13;;
5277;SDS011;2662;51.194;6.614;2023-04-06T10:01:05;21.90;;;11.17;;
5277;SDS011;2662;51.194;6.614;2023-04-06T10:03:36;18.00;;;9.73;;
5277;SDS011;2662;51.194;6.614;2023-04-06T10:06:11;17.17;;;9.93;;
5277;SDS011;2662;51.194;6.614;2023-04-06T10:08:41;19.53;;;10.30;;
5277;SDS011;2662;51.194;6.614;2023-04-06T10:11:12;20.97;;;10.73;;
5277;SDS011;2662;51.194;6.614;2023-04-06T10:13:39;15.80;;;11.00;;
5277;SDS011;2662;51.194;6.614;2023-04-06T10:16:07;18.27;;;10.73;;
5277;SDS011;2662;51.194;6.614;2023-04-06T10:18:34;19.57;;;11.40;;
5277;SDS011;2662;51.194;6.614;2023-04-06T10:21:04;21.87;;;10.60;;
5277;SDS011;2662;51.194;6.614;2023-04-06T10:23:35;18.07;;;10.53;;
5277;SDS011;2662;51.194;6.614;2023-04-06T10:26:11;23.77;;;11.10;;
5277;SDS011;2662;51.194;6.614;2023-04-06T10:28:41;23.10;;;11.50;;
5277;SDS011;2662;51.194;6.614;2023-04-06T10:31:09;19.30;;;10.60;;
5277;SDS011;2662;51.194;6.614;2023-04-06T10:33:36;19.00;;;10.83;;
5277;SDS011;2662;51.194;6.614;2023-04-06T10:36:09;22.40;;;10.30;;
5277;SDS011;2662;51.194;6.614;2023-04-06T10:38:37;21.10;;;11.90;;
5277;SDS011;2662;51.194;6.614;2023-04-06T10:41:05;20.53;;;10.60;;
5277;SDS011;2662;51.194;6.614;2023-04-06T10:43:35;29.60;;;10.60;;
5277;SDS011;2662;51.194;6.614;2023-04-06T10:46:03;19.47;;;11.23;;
5277;SDS011;2662;51.194;6.614;2023-04-06T10:48:38;27.23;;;11.00;;
5277;SDS011;2662;51.194;6.614;2023-04-06T10:51:10;25.03;;;10.90;;
5277;SDS011;2662;51.194;6.614;2023-04-06T10:53:37;25.57;;;9.87;;
5277;SDS011;2662;51.194;6.614;2023-04-06T10:56:09;26.13;;;10.43;;
5277;SDS011;2662;51.194;6.614;2023-04-06T10:58:39;19.57;;;8.97;;
5277;SDS011;2662;51.194;6.614;2023-04-06T11:01:11;22.87;;;11.03;;
5277;SDS011;2662;51.194;6.614;2023-04-06T11:03:47;18.43;;;9.80;;
5277;SDS011;2662;51.194;6.614;2023-04-06T11:06:19;21.00;;;9.57;;
5277;SDS011;2662;51.194;6.614;2023-04-06T11:08:46;22.40;;;10.10;;
5277;SDS011;2662;51.194;6.614;2023-04-06T11:11:13;26.20;;;11.50;;
5277;SDS011;2662;51.194;6.614;2023-04-06T11:13:45;19.10;;;9.57;;
5277;SDS011;2662;51.194;6.614;2023-04-06T11:16:13;27.43;;;10.10;;
5277;SDS011;2662;51.194;6.614;2023-04-06T11:18:46;20.37;;;9.77;;
5277;SDS011;2662;51.194;6.614;2023-04-06T11:21:14;18.60;;;9.60;;
5277;SDS011;2662;51.194;6.614;2023-04-06T11:23:41;24.87;;;10.37;;
5277;SDS011;2662;51.194;6.614;2023-04-06T11:26:10;20.43;;;9.90;;
5277;SDS011;2662;51.194;6.614;2023-04-06T11:28:37;20.70;;;10.70;;
5277;SDS011;2662;51.194;6.614;2023-04-06T11:31:06;21.33;;;9.53;;
5277;SDS011;2662;51.194;6.614;2023-04-06T11:33:36;15.60;;;9.83;;
5277;SDS011;2662;51.194;6.614;2023-04-06T11:36:04;18.73;;;9.87;;
5277;SDS011;2662;51.194;6.614;2023-04-06T11:38:32;17.77;;;10.13;;
5277;SDS011;2662;51.194;6.614;2023-04-06T11:40:58;21.60;;;9.83;;
5277;SDS011;2662;51.194;6.614;2023-04-06T11:43:27;18.53;;;10.03;;
5277;SDS011;2662;51.194;6.614;2023-04-06T11:46:02;18.83;;;9.80;;
5277;SDS011;2662;51.194;6.614;2023-04-06T11:48:32;19.40;;;9.57;;
5277;SDS011;2662;51.194;6.614;2023-04-06T11:51:10;18.47;;;9.70;;
5277;SDS011;2662;51.194;6.614;2023-04-06T11:53:43;20.80;;;10.33;;
5277;SDS011;2662;51.194;6.614;2023-04-06T11:56:10;17.47;;;9.80;;
5277;SDS011;2662;51.194;6.614;2023-04-06T11:58:37;16.97;;;9.30;;
5277;SDS011;2662;51.194;6.614;2023-04-06T12:01:04;15.60;;;7.90;;
5277;SDS011;2662;51.194;6.614;2023-04-06T12:03:32;11.80;;;7.30;;
5277;SDS011;2662;51.194;6.614;2023-04-06T12:05:59;12.53;;;7.17;;
5277;SDS011;2662;51.194;6.614;2023-04-06T12:08:26;10.13;;;6.80;;
5277;SDS011;2662;51.194;6.614;2023-04-06T12:10:53;10.43;;;6.60;;
5277;SDS011;2662;51.194;6.614;2023-04-06T12:13:20;11.70;;;6.70;;
5277;SDS011;2662;51.194;6.614;2023-04-06T12:15:46;10.27;;;6.50;;
5277;SDS011;2662;51.194;6.614;2023-04-06T12:18:14;12.33;;;7.00;;
5277;SDS011;2662;51.194;6.614;2023-04-06T12:20:42;11.40;;;6.63;;
5277;SDS011;2662;51.194;6.614;2023-04-06T12:23:09;14.93;;;7.50;;
5277;SDS011;2662;51.194;6.614;2023-04-06T12:25:38;17.33;;;7.33;;
5277;SDS011;2662;51.194;6.614;2023-04-06T12:28:05;11.23;;;6.60;;
5277;SDS011;2662;51.194;6.614;2023-04-06T12:30:34;13.10;;;6.47;;
5277;SDS011;2662;51.194;6.614;2023-04-06T12:33:00;11.40;;;5.27;;
5277;SDS011;2662;51.194;6.614;2023-04-06T12:35:27;11.10;;;6.17;;
5277;SDS011;2662;51.194;6.614;2023-04-06T12:37:56;12.27;;;5.70;;
5277;SDS011;2662;51.194;6.614;2023-04-06T12:40:22;10.03;;;6.20;;
5277;SDS011;2662;51.194;6.614;2023-04-06T12:42:49;12.20;;;5.80;;
5277;SDS011;2662;51.194;6.614;2023-04-06T12:45:16;10.53;;;5.60;;
5277;SDS011;2662;51.194;6.614;2023-04-06T12:47:43;9.03;;;5.63;;
5277;SDS011;2662;51.194;6.614;2023-04-06T12:50:10;7.07;;;4.93;;
5277;SDS011;2662;51.194;6.614;2023-04-06T12:52:37;8.00;;;5.63;;
5277;SDS011;2662;51.194;6.614;2023-04-06T12:55:05;8.57;;;5.47;;
5277;SDS011;2662;51.194;6.614;2023-04-06T12:57:33;16.30;;;7.07;;
5277;SDS011;2662;51.194;6.614;2023-04-06T13:00:00;21.60;;;6.03;;
5277;SDS011;2662;51.194;6.614;2023-04-06T13:02:27;11.40;;;6.73;;
5277;SDS011;2662;51.194;6.614;2023-04-06T13:04:54;12.10;;;7.20;;
5277;SDS011;2662;51.194;6.614;2023-04-06T13:07:21;9.40;;;6.10;;
5277;SDS011;2662;51.194;6.614;2023-04-06T13:09:48;7.63;;;5.67;;
5277;SDS011;2662;51.194;6.614;2023-04-06T13:12:16;9.73;;;6.17;;
5277;SDS011;2662;51.194;6.614;2023-04-06T13:14:44;9.80;;;5.70;;
5277;SDS011;2662;51.194;6.614;2023-04-06T13:17:15;9.03;;;5.33;;
5277;SDS011;2662;51.194;6.614;2023-04-06T13:19:42;12.17;;;6.47;;
5277;SDS011;2662;51.194;6.614;2023-04-06T13:22:09;9.97;;;5.40;;
5277;SDS011;2662;51.194;6.614;2023-04-06T13:24:36;8.43;;;5.20;;
5277;SDS011;2662;51.194;6.614;2023-04-06T13:27:03;9.90;;;5.67;;
5277;SDS011;2662;51.194;6.614;2023-04-06T13:29:31;13.50;;;6.23;;
5277;SDS011;2662;51.194;6.614;2023-04-06T13:31:59;14.93;;;6.17;;
5277;SDS011;2662;51.194;6.614;2023-04-06T13:34:26;12.77;;;5.43;;
5277;SDS011;2662;51.194;6.614;2023-04-06T13:36:52;6.90;;;4.90;;
5277;SDS011;2662;51.194;6.614;2023-04-06T13:39:19;8.93;;;4.80;;
5277;SDS011;2662;51.194;6.614;2023-04-06T13:41:46;7.70;;;5.30;;
5277;SDS011;2662;51.194;6.614;2023-04-06T13:44:13;8.60;;;5.27;;
5277;SDS011;2662;51.194;6.614;2023-04-06T13:46:41;7.10;;;5.17;;
5277;SDS011;2662;51.194;6.614;2023-04-06T13:49:08;9.10;;;5.77;;
5277;SDS011;2662;51.194;6.614;2023-04-06T13:51:35;13.13;;;5.93;;
5277;SDS011;2662;51.194;6.614;2023-04-06T13:54:01;9.00;;;5.70;;
5277;SDS011;2662;51.194;6.614;2023-04-06T13:56:28;13.13;;;6.53;;
5277;SDS011;2662;51.194;6.614;2023-04-06T13:58:55;8.30;;;5.90;;
5277;SDS011;2662;51.194;6.614;2023-04-06T14:01:22;10.30;;;5.77;;
5277;SDS011;2662;51.194;6.614;2023-04-06T14:03:52;12.27;;;6.20;;
5277;SDS011;2662;51.194;6.614;2023-04-06T14:06:19;8.77;;;5.80;;
5277;SDS011;2662;51.194;6.614;2023-04-06T14:08:46;14.50;;;6.27;;
5277;SDS011;2662;51.194;6.614;2023-04-06T14:11:13;10.13;;;6.20;;
5277;SDS011;2662;51.194;6.614;2023-04-06T14:13:41;10.50;;;5.90;;
5277;SDS011;2662;51.194;6.614;2023-04-06T14:16:07;10.97;;;6.60;;
5277;SDS011;2662;51.194;6.614;2023-04-06T14:18:35;10.80;;;6.47;;
5277;SDS011;2662;51.194;6.614;2023-04-06T14:21:04;9.53;;;6.37;;
5277;SDS011;2662;51.194;6.614;2023-04-06T14:23:31;9.40;;;6.10;;
5277;SDS011;2662;51.194;6.614;2023-04-06T14:26:01;9.60;;;5.50;;
5277;SDS011;2662;51.194;6.614;2023-04-06T14:28:29;11.43;;;6.50;;
5277;SDS011;2662;51.194;6.614;2023-04-06T14:30:56;11.57;;;6.50;;
5277;SDS011;2662;51.194;6.614;2023-04-06T14:33:23;15.00;;;7.00;;
5277;SDS011;2662;51.194;6.614;2023-04-06T14:35:50;11.40;;;6.60;;
5277;SDS011;2662;51.194;6.614;2023-04-06T14:38:18;9.13;;;5.80;;
5277;SDS011;2662;51.194;6.614;2023-04-06T14:40:45;12.07;;;6.20;;
5277;SDS011;2662;51.194;6.614;2023-04-06T14:43:11;14.67;;;6.60;;
5277;SDS011;2662;51.194;6.614;2023-04-06T14:45:38;12.73;;;6.83;;
5277;SDS011;2662;51.194;6.614;2023-04-06T14:48:05;12.70;;;7.00;;
5277;SDS011;2662;51.194;6.614;2023-04-06T14:50:33;12.23;;;6.93;;
5277;SDS011;2662;51.194;6.614;2023-04-06T14:53:00;10.63;;;5.80;;
5277;SDS011;2662;51.194;6.614;2023-04-06T14:55:28;10.43;;;5.90;;
5277;SDS011;2662;51.194;6.614;2023-04-06T14:57:55;15.90;;;7.00;;
5277;SDS011;2662;51.194;6.614;2023-04-06T15:00:22;16.10;;;7.10;;
5277;SDS011;2662;51.194;6.614;2023-04-06T15:02:49;10.20;;;6.70;;